createdAt,value
2023-05-21T00:01:03.980Z,96408.31
2023-05-21T00:03:30.762Z,96408.06
2023-05-21T00:05:57.535Z,96400.22
2023-05-21T00:08:24.280Z,96399.97
2023-05-21T00:10:50.992Z,96394.78
2023-05-21T00:13:17.700Z,96393.97
2023-05-21T00:15:44.406Z,96394.50
2023-05-21T00:18:11.138Z,96394.75
2023-05-21T00:20:37.867Z,96392.34
2023-05-21T00:23:04.588Z,96392.91
2023-05-21T00:25:31.374Z,96394.50
2023-05-21T00:27:58.079Z,96393.41
2023-05-21T00:30:24.749Z,96388.00
2023-05-21T00:32:51.456Z,96386.09
2023-05-21T00:35:18.179Z,96385.84
2023-05-21T00:37:44.825Z,96387.97
2023-05-21T00:40:11.553Z,96375.78
2023-05-21T00:42:38.229Z,96384.72
2023-05-21T00:45:05.838Z,96381.97
2023-05-21T00:47:32.646Z,96374.66
2023-05-21T00:49:59.363Z,96373.03
2023-05-21T00:52:26.016Z,96368.97
2023-05-21T00:54:52.650Z,96373.84
2023-05-21T00:57:19.383Z,96380.88
2023-05-21T00:59:46.816Z,96376.53
2023-05-21T01:02:13.642Z,96374.84
2023-05-21T01:04:40.440Z,96383.41
2023-05-21T01:07:07.136Z,96380.84
2023-05-21T01:09:33.800Z,96374.06
2023-05-21T01:12:00.493Z,96366.47
2023-05-21T01:14:29.268Z,96363.25
2023-05-21T01:16:56.003Z,96376.59
2023-05-21T01:19:22.783Z,96370.94
2023-05-21T01:21:50.961Z,96378.53
2023-05-21T01:24:17.609Z,96379.09
2023-05-21T01:26:44.355Z,96380.13
2023-05-21T01:29:11.044Z,96386.91
2023-05-21T01:31:51.427Z,96393.13
2023-05-21T01:34:18.618Z,96387.41
2023-05-21T01:36:52.050Z,96383.25
2023-05-21T01:39:22.843Z,96383.16
2023-05-21T01:41:49.515Z,96390.19
2023-05-21T01:44:16.228Z,96386.44
2023-05-21T01:46:42.979Z,96391.31
2023-05-21T01:49:09.728Z,96392.13
2023-05-21T01:51:36.450Z,96386.38
2023-05-21T01:54:03.208Z,96385.22
2023-05-21T01:56:29.916Z,96383.50
2023-05-21T01:58:56.593Z,96385.59
2023-05-21T02:01:23.274Z,96385.53
2023-05-21T02:03:50.022Z,96377.09
2023-05-21T02:06:16.711Z,96382.78
2023-05-21T02:08:43.391Z,96386.25
2023-05-21T02:11:10.085Z,96378.41
2023-05-21T02:13:36.730Z,96378.97
2023-05-21T02:16:03.370Z,96389.22
2023-05-21T02:18:30.059Z,96383.91
2023-05-21T02:20:56.860Z,96388.28
2023-05-21T02:23:23.582Z,96389.31
2023-05-21T02:25:50.246Z,96387.13
2023-05-21T02:28:16.952Z,96380.97
2023-05-21T02:30:43.633Z,96384.28
2023-05-21T02:33:10.340Z,96386.16
2023-05-21T02:35:37.218Z,96381.81
2023-05-21T02:38:04.078Z,96376.97
2023-05-21T02:40:30.773Z,96373.19
2023-05-21T02:42:57.438Z,96379.09
2023-05-21T02:45:24.105Z,96381.19
2023-05-21T02:47:50.772Z,96373.06
2023-05-21T02:50:17.511Z,96368.69
2023-05-21T02:52:44.165Z,96377.09
2023-05-21T02:55:10.795Z,96375.78
2023-05-21T02:57:37.428Z,96377.72
2023-05-21T03:00:04.369Z,96387.94
2023-05-21T03:02:31.145Z,96384.63
2023-05-21T03:04:57.836Z,96380.53
2023-05-21T03:07:24.529Z,96372.44
2023-05-21T03:09:51.181Z,96372.13
2023-05-21T03:12:17.868Z,96363.22
2023-05-21T03:14:44.521Z,96375.13
2023-05-21T03:17:12.327Z,96367.09
2023-05-21T03:19:39.072Z,96369.22
2023-05-21T03:22:05.776Z,96363.78
2023-05-21T03:24:32.441Z,96370.25
2023-05-21T03:26:59.600Z,96368.53
2023-05-21T03:29:26.317Z,96369.06
2023-05-21T03:31:53.201Z,96367.97
2023-05-21T03:34:19.958Z,96375.03
2023-05-21T03:36:47.152Z,96369.38
2023-05-21T03:39:13.786Z,96377.22
2023-05-21T03:41:40.511Z,96374.16
2023-05-21T03:44:07.160Z,96381.38
2023-05-21T03:46:33.898Z,96383.31
2023-05-21T03:49:00.573Z,96385.16
2023-05-21T03:51:27.227Z,96380.47
2023-05-21T03:53:53.857Z,96389.38
2023-05-21T03:56:20.532Z,96391.00
2023-05-21T03:58:47.176Z,96388.84
2023-05-21T04:01:13.877Z,96387.28
2023-05-21T04:03:41.035Z,96386.00
2023-05-21T04:06:08.725Z,96392.00
2023-05-21T04:08:35.555Z,96397.94
2023-05-21T04:11:02.340Z,96393.38
2023-05-21T04:13:28.998Z,96398.78
2023-05-21T04:15:55.691Z,96396.63
2023-05-21T04:18:22.422Z,96402.53
2023-05-21T04:20:49.199Z,96406.50
2023-05-21T04:23:15.921Z,96407.25
2023-05-21T04:25:42.581Z,96412.16
2023-05-21T04:28:09.223Z,96419.16
2023-05-21T04:30:35.964Z,96415.47
2023-05-21T04:33:03.169Z,96412.22
2023-05-21T04:35:30.020Z,96411.94
2023-05-21T04:37:56.700Z,96416.41
2023-05-21T04:40:23.350Z,96421.88
2023-05-21T04:42:50.594Z,96427.28
2023-05-21T04:45:17.240Z,96420.25
2023-05-21T04:47:44.001Z,96434.88
2023-05-21T04:50:10.705Z,96430.78
2023-05-21T04:52:37.395Z,96434.81
2023-05-21T04:55:04.293Z,96436.47
2023-05-21T04:57:31.000Z,96430.78
2023-05-21T04:59:57.722Z,96445.41
2023-05-21T05:02:24.390Z,96444.34
2023-05-21T05:04:51.232Z,96442.53
2023-05-21T05:07:17.919Z,96448.56
2023-05-21T05:09:44.559Z,96446.69
2023-05-21T05:12:11.188Z,96457.06
2023-05-21T05:14:37.820Z,96445.22
2023-05-21T05:17:04.713Z,96450.69
2023-05-21T05:19:31.416Z,96449.72
2023-05-21T05:21:58.063Z,96451.38
2023-05-21T05:24:24.732Z,96455.28
2023-05-21T05:26:51.373Z,96453.19
2023-05-21T05:29:19.230Z,96451.88
2023-05-21T05:31:45.936Z,96455.78
2023-05-21T05:34:12.648Z,96454.78
2023-05-21T05:36:39.325Z,96451.81
2023-05-21T05:39:06.018Z,96455.63
2023-05-21T05:41:32.723Z,96454.09
2023-05-21T05:43:59.415Z,96456.56
2023-05-21T05:46:26.141Z,96458.44
2023-05-21T05:48:52.812Z,96444.91
2023-05-21T05:51:19.609Z,96450.06
2023-05-21T05:53:47.501Z,96449.28
2023-05-21T05:56:14.122Z,96452.03
2023-05-21T05:58:40.819Z,96448.81
2023-05-21T06:01:07.548Z,96447.75
2023-05-21T06:03:34.367Z,96451.03
2023-05-21T06:06:01.182Z,96455.94
2023-05-21T06:08:27.897Z,96459.78
2023-05-21T06:10:54.590Z,96451.41
2023-05-21T06:13:21.250Z,96455.25
2023-05-21T06:15:47.953Z,96448.53
2023-05-21T06:18:14.628Z,96444.50
2023-05-21T06:20:41.351Z,96458.88
2023-05-21T06:23:07.992Z,96458.91
2023-05-21T06:25:34.893Z,96455.66
2023-05-21T06:28:01.752Z,96455.69
2023-05-21T06:30:28.501Z,96451.88
2023-05-21T06:32:55.300Z,96456.47
2023-05-21T06:35:22.039Z,96460.84
2023-05-21T06:37:48.737Z,96454.06
2023-05-21T06:40:15.474Z,96456.25
2023-05-21T06:42:42.180Z,96454.06
2023-05-21T06:45:09.284Z,96460.56
2023-05-21T06:47:35.981Z,96456.50
2023-05-21T06:50:02.715Z,96449.16
2023-05-21T06:52:29.552Z,96458.16
2023-05-21T06:54:56.227Z,96449.75
2023-05-21T06:57:22.873Z,96448.41
2023-05-21T06:59:49.553Z,96454.88
2023-05-21T07:02:16.238Z,96455.19
2023-05-21T07:04:42.893Z,96456.56
2023-05-21T07:07:09.536Z,96458.22
2023-05-21T07:09:36.219Z,96459.53
2023-05-21T07:12:02.870Z,96458.47
2023-05-21T07:14:29.498Z,96456.00
2023-05-21T07:16:56.207Z,96455.16
2023-05-21T07:19:22.975Z,96448.91
2023-05-21T07:21:49.732Z,96445.66
2023-05-21T07:24:16.454Z,96443.75
2023-05-21T07:26:43.156Z,96445.88
2023-05-21T07:29:09.837Z,96455.09
2023-05-21T07:31:36.628Z,96460.00
2023-05-21T07:34:03.362Z,96452.38
2023-05-21T07:36:30.074Z,96453.50
2023-05-21T07:38:56.756Z,96455.75
2023-05-21T07:41:23.430Z,96456.03
2023-05-21T07:43:50.095Z,96448.97
2023-05-21T07:46:16.886Z,96444.88
2023-05-21T07:48:43.573Z,96447.84
2023-05-21T07:51:10.732Z,96437.78
2023-05-21T07:53:37.379Z,96439.91
2023-05-21T07:56:04.112Z,96440.44
2023-05-21T07:58:30.782Z,96441.47
2023-05-21T08:00:57.488Z,96436.00
2023-05-21T08:03:26.101Z,96450.66
2023-05-21T08:05:52.842Z,96438.41
2023-05-21T08:08:19.746Z,96439.50
2023-05-21T08:10:46.517Z,96441.66
2023-05-21T08:13:13.161Z,96447.38
2023-05-21T08:15:39.838Z,96445.16
2023-05-21T08:18:06.591Z,96449.47
2023-05-21T08:20:33.430Z,96449.16
2023-05-21T08:23:00.197Z,96454.53
2023-05-21T08:25:27.230Z,96448.03
2023-05-21T08:27:54.017Z,96449.91
2023-05-21T08:30:20.798Z,96455.88
2023-05-21T08:32:48.114Z,96456.16
2023-05-21T08:35:14.855Z,96451.28
2023-05-21T08:37:41.535Z,96452.66
2023-05-21T08:40:08.646Z,96451.03
2023-05-21T08:42:48.217Z,96447.47
2023-05-21T08:45:17.211Z,96444.16
2023-05-21T08:47:44.013Z,96444.97
2023-05-21T08:50:12.025Z,96438.47
2023-05-21T08:52:38.807Z,96447.97
2023-05-21T08:55:05.880Z,96446.03
2023-05-21T08:57:32.586Z,96442.75
2023-05-21T08:59:59.630Z,96450.94
2023-05-21T09:02:26.574Z,96446.59
2023-05-21T09:04:53.564Z,96450.41
2023-05-21T09:07:20.234Z,96441.44
2023-05-21T09:09:56.124Z,96451.72
2023-05-21T09:12:23.756Z,96445.44
2023-05-21T09:14:50.400Z,96453.28
2023-05-21T09:17:17.098Z,96451.19
2023-05-21T09:20:25.440Z,96454.94
2023-05-21T09:22:52.229Z,96451.81
2023-05-21T09:25:26.422Z,96451.97
2023-05-21T09:27:53.072Z,96457.38
2023-05-21T09:30:23.573Z,96456.78
2023-05-21T09:32:53.591Z,96453.16
2023-05-21T09:35:20.272Z,96458.59
2023-05-21T09:37:51.013Z,96458.59
2023-05-21T09:40:18.876Z,96448.75
2023-05-21T09:42:46.197Z,96443.28
2023-05-21T09:45:12.968Z,96455.81
2023-05-21T09:47:42.742Z,96458.19
2023-05-21T09:50:10.930Z,96458.81
2023-05-21T09:52:39.111Z,96457.53
2023-05-21T09:55:07.045Z,96460.25
2023-05-21T09:57:33.743Z,96462.44
2023-05-21T10:00:00.438Z,96461.97
2023-05-21T10:02:27.189Z,96461.69
2023-05-21T10:04:53.996Z,96461.47
2023-05-21T10:07:21.789Z,96466.38
2023-05-21T10:09:48.458Z,96462.13
2023-05-21T10:12:16.503Z,96464.81
2023-05-21T10:14:43.198Z,96465.06
2023-05-21T10:17:09.975Z,96460.75
2023-05-21T10:19:36.674Z,96458.25
2023-05-21T10:22:03.381Z,96464.72
2023-05-21T10:24:30.085Z,96458.72
2023-05-21T10:26:56.753Z,96450.59
2023-05-21T10:29:23.397Z,96456.38
2023-05-21T10:31:50.242Z,96462.78
2023-05-21T10:34:16.938Z,96462.22
2023-05-21T10:36:43.752Z,96458.06
2023-05-21T10:39:10.520Z,96459.75
2023-05-21T10:42:01.119Z,96453.38
2023-05-21T10:44:27.735Z,96447.88
2023-05-21T10:47:09.278Z,96452.91
2023-05-21T10:50:00.767Z,96454.56
2023-05-21T10:53:02.762Z,96448.25
2023-05-21T10:55:43.028Z,96447.38
2023-05-21T10:58:09.589Z,96439.38
2023-05-21T11:00:36.445Z,96446.09
2023-05-21T11:03:03.548Z,96432.88
2023-05-21T11:05:52.301Z,96437.97
2023-05-21T11:08:29.021Z,96449.81
2023-05-21T11:10:56.178Z,96447.44
2023-05-21T11:13:22.856Z,96446.81
2023-05-21T11:15:58.250Z,96445.19
2023-05-21T11:18:30.670Z,96441.97
2023-05-21T11:21:07.049Z,96436.50
2023-05-21T11:23:51.971Z,96444.72
2023-05-21T11:26:19.027Z,96442.69
2023-05-21T11:28:45.756Z,96438.16
2023-05-21T11:31:25.004Z,96442.41
2023-05-21T11:34:19.811Z,96436.31
2023-05-21T11:36:47.171Z,96441.97
2023-05-21T11:39:13.694Z,96439.28
2023-05-21T11:41:53.598Z,96442.38
2023-05-21T11:44:38.240Z,96437.72
2023-05-21T11:47:05.009Z,96441.56
2023-05-21T11:49:31.750Z,96438.78
2023-05-21T11:52:01.382Z,96443.66
2023-05-21T11:54:28.546Z,96432.03
2023-05-21T11:56:55.243Z,96435.34
2023-05-21T11:59:21.947Z,96433.38
2023-05-21T12:01:48.616Z,96438.00
2023-05-21T12:04:15.267Z,96440.50
2023-05-21T12:06:44.982Z,96436.47
2023-05-21T12:09:11.985Z,96446.47
2023-05-21T12:11:38.828Z,96436.47
2023-05-21T12:14:09.578Z,96441.19
2023-05-21T12:16:36.391Z,96438.97
2023-05-21T12:19:03.539Z,96439.78
2023-05-21T12:21:30.324Z,96438.88
2023-05-21T12:23:56.998Z,96434.50
2023-05-21T12:26:24.305Z,96435.84
2023-05-21T12:28:52.360Z,96431.88
2023-05-21T12:31:19.947Z,96422.38
2023-05-21T12:33:49.886Z,96423.66
2023-05-21T12:36:23.228Z,96424.78
2023-05-21T12:38:50.481Z,96426.50
2023-05-21T12:41:17.600Z,96423.06
2023-05-21T12:43:44.870Z,96417.97
2023-05-21T12:46:12.003Z,96419.50
2023-05-21T12:48:38.710Z,96416.25
2023-05-21T12:51:05.416Z,96414.25
2023-05-21T12:53:37.960Z,96422.47
2023-05-21T12:56:11.359Z,96423.66
2023-05-21T12:58:38.062Z,96424.38
2023-05-21T13:01:07.598Z,96425.38
2023-05-21T13:03:34.619Z,96435.13
2023-05-21T13:06:01.836Z,96428.94
2023-05-21T13:08:28.870Z,96433.00
2023-05-21T13:10:55.672Z,96429.84
2023-05-21T13:13:22.486Z,96431.59
2023-05-21T13:15:49.237Z,96427.91
2023-05-21T13:18:16.105Z,96426.81
2023-05-21T13:20:42.902Z,96421.94
2023-05-21T13:23:11.422Z,96423.56
2023-05-21T13:25:38.587Z,96419.41
2023-05-21T13:28:05.234Z,96412.94
2023-05-21T13:30:32.120Z,96411.91
2023-05-21T13:32:58.941Z,96412.00
2023-05-21T13:35:25.750Z,96411.53
2023-05-21T13:37:53.220Z,96411.66
2023-05-21T13:40:19.970Z,96407.16
2023-05-21T13:42:47.915Z,96406.34
2023-05-21T13:45:15.939Z,96408.38
2023-05-21T13:47:42.914Z,96402.88
2023-05-21T13:50:09.872Z,96410.22
2023-05-21T13:52:37.129Z,96407.22
2023-05-21T13:55:04.032Z,96409.66
2023-05-21T13:57:30.732Z,96405.31
2023-05-21T13:59:57.922Z,96410.56
2023-05-21T14:02:24.722Z,96410.16
2023-05-21T14:04:51.551Z,96407.72
2023-05-21T14:07:18.275Z,96408.81
2023-05-21T14:09:45.030Z,96407.38
2023-05-21T14:12:11.728Z,96406.94
2023-05-21T14:14:38.473Z,96404.31
2023-05-21T14:17:05.817Z,96404.25
2023-05-21T14:19:32.632Z,96404.47
2023-05-21T14:21:59.367Z,96405.94
2023-05-21T14:24:26.260Z,96410.09
2023-05-21T14:26:52.973Z,96404.75
2023-05-21T14:29:19.693Z,96413.25
2023-05-21T14:31:46.486Z,96404.75
2023-05-21T14:34:13.211Z,96409.97
2023-05-21T14:36:39.879Z,96412.78
2023-05-21T14:39:06.527Z,96407.00
2023-05-21T14:41:33.218Z,96411.44
2023-05-21T14:43:59.886Z,96402.13
2023-05-21T14:46:26.592Z,96398.44
2023-05-21T14:48:53.277Z,96396.69
2023-05-21T14:51:19.988Z,96404.19
2023-05-21T14:53:46.733Z,96393.00
2023-05-21T14:56:13.367Z,96394.53
2023-05-21T14:58:40.115Z,96394.16
2023-05-21T15:01:07.009Z,96395.13
2023-05-21T15:03:33.894Z,96396.59
2023-05-21T15:06:00.697Z,96387.84
2023-05-21T15:08:27.414Z,96385.91
2023-05-21T15:10:54.061Z,96384.16
2023-05-21T15:13:20.720Z,96388.19
2023-05-21T15:15:47.434Z,96394.13
2023-05-21T15:18:14.224Z,96393.53
2023-05-21T15:20:40.876Z,96386.06
2023-05-21T15:23:15.864Z,96390.03
2023-05-21T15:25:43.227Z,96391.44
2023-05-21T15:28:09.877Z,96387.22
2023-05-21T15:30:36.529Z,96392.41
2023-05-21T15:33:03.211Z,96391.59
2023-05-21T15:35:30.121Z,96394.38
2023-05-21T15:37:56.928Z,96397.38
2023-05-21T15:40:26.150Z,96399.06
2023-05-21T15:42:53.659Z,96398.44
2023-05-21T15:45:20.389Z,96393.81
2023-05-21T15:47:47.300Z,96389.91
2023-05-21T15:50:14.059Z,96390.41
2023-05-21T15:52:41.552Z,96396.69
2023-05-21T15:55:08.646Z,96392.91
2023-05-21T15:57:35.323Z,96406.94
2023-05-21T16:00:02.147Z,96408.75
2023-05-21T16:02:28.999Z,96409.94
2023-05-21T16:04:55.691Z,96411.56
2023-05-21T16:07:23.267Z,96411.09
2023-05-21T16:09:49.909Z,96400.44
2023-05-21T16:12:16.644Z,96406.09
2023-05-21T16:14:43.321Z,96396.63
2023-05-21T16:17:10.170Z,96405.81
2023-05-21T16:19:37.072Z,96401.84
2023-05-21T16:22:03.990Z,96400.34
2023-05-21T16:24:32.150Z,96402.50
2023-05-21T16:26:58.846Z,96400.03
2023-05-21T16:29:25.551Z,96404.88
2023-05-21T16:31:52.416Z,96404.22
2023-05-21T16:34:19.137Z,96398.28
2023-05-21T16:36:46.071Z,96401.28
2023-05-21T16:39:12.981Z,96394.09
2023-05-21T16:41:39.717Z,96397.78
2023-05-21T16:44:06.396Z,96393.75
2023-05-21T16:46:33.245Z,96389.91
2023-05-21T16:49:00.153Z,96400.31
2023-05-21T16:51:26.842Z,96397.88
2023-05-21T16:53:53.517Z,96395.72
2023-05-21T16:56:20.359Z,96407.13
2023-05-21T16:58:47.091Z,96395.38
2023-05-21T17:01:13.893Z,96396.06
2023-05-21T17:03:43.080Z,96398.66
2023-05-21T17:06:10.179Z,96393.69
2023-05-21T17:08:36.835Z,96397.84
2023-05-21T17:11:03.608Z,96398.69
2023-05-21T17:13:30.540Z,96393.72
2023-05-21T17:15:57.286Z,96401.84
2023-05-21T17:18:24.068Z,96404.88
2023-05-21T17:20:50.759Z,96400.97
2023-05-21T17:23:17.699Z,96403.63
2023-05-21T17:25:44.406Z,96410.88
2023-05-21T17:28:11.150Z,96411.13
2023-05-21T17:30:37.879Z,96414.53
2023-05-21T17:33:04.578Z,96415.56
2023-05-21T17:35:31.258Z,96417.19
2023-05-21T17:37:57.917Z,96415.50
2023-05-21T17:40:24.959Z,96419.66
2023-05-21T17:42:52.560Z,96419.88
2023-05-21T17:45:21.216Z,96421.44
2023-05-21T17:47:47.881Z,96421.47
2023-05-21T17:50:14.895Z,96421.78
2023-05-21T17:52:41.673Z,96421.06
2023-05-21T17:55:08.874Z,96426.47
2023-05-21T17:57:35.703Z,96434.19
2023-05-21T18:00:03.699Z,96446.56
2023-05-21T18:02:30.639Z,96451.22
2023-05-21T18:04:57.761Z,96454.84
2023-05-21T18:07:24.412Z,96451.44
2023-05-21T18:09:51.235Z,96452.81
2023-05-21T18:12:18.000Z,96456.16
2023-05-21T18:14:44.735Z,96455.03
2023-05-21T18:17:11.493Z,96456.38
2023-05-21T18:19:38.219Z,96458.19
2023-05-21T18:22:05.056Z,96456.66
2023-05-21T18:24:31.819Z,96460.91
2023-05-21T18:26:58.589Z,96458.59
2023-05-21T18:29:25.271Z,96454.91
2023-05-21T18:31:51.946Z,96463.69
2023-05-21T18:34:18.892Z,96461.19
2023-05-21T18:36:45.539Z,96465.09
2023-05-21T18:39:12.185Z,96469.22
2023-05-21T18:41:39.180Z,96464.56
2023-05-21T18:44:06.050Z,96465.50
2023-05-21T18:46:32.933Z,96471.34
2023-05-21T18:48:59.648Z,96472.75
2023-05-21T18:51:26.298Z,96487.34
2023-05-21T18:53:53.217Z,96492.91
2023-05-21T18:56:19.863Z,96493.00
2023-05-21T18:58:46.504Z,96494.16
2023-05-21T19:01:13.150Z,96496.47
2023-05-21T19:03:39.798Z,96497.91
2023-05-21T19:06:06.420Z,96492.38
2023-05-21T19:08:33.395Z,96500.94
2023-05-21T19:11:00.176Z,96501.28
2023-05-21T19:13:26.823Z,96497.28
2023-05-21T19:15:53.578Z,96500.50
2023-05-21T19:18:20.226Z,96498.19
2023-05-21T19:20:46.937Z,96495.41
2023-05-21T19:23:13.611Z,96501.09
2023-05-21T19:25:40.239Z,96510.94
2023-05-21T19:28:06.937Z,96507.13
2023-05-21T19:30:33.603Z,96512.13
2023-05-21T19:33:00.361Z,96513.19
2023-05-21T19:35:27.088Z,96515.94
2023-05-21T19:37:53.827Z,96509.97
2023-05-21T19:40:20.585Z,96513.81
2023-05-21T19:42:47.349Z,96512.13
2023-05-21T19:45:14.134Z,96512.91
2023-05-21T19:47:41.072Z,96517.28
2023-05-21T19:50:09.253Z,96515.38
2023-05-21T19:52:36.909Z,96515.88
2023-05-21T19:55:03.759Z,96514.75
2023-05-21T19:57:33.767Z,96517.78
2023-05-21T20:00:00.561Z,96526.84
2023-05-21T20:02:27.271Z,96529.03
2023-05-21T20:04:54.167Z,96529.03
2023-05-21T20:07:20.865Z,96539.94
2023-05-21T20:09:47.572Z,96542.13
2023-05-21T20:12:14.434Z,96548.81
2023-05-21T20:14:41.133Z,96555.06
2023-05-21T20:17:08.190Z,96554.22
2023-05-21T20:19:35.104Z,96559.66
2023-05-21T20:22:01.876Z,96562.72
2023-05-21T20:24:28.590Z,96556.47
2023-05-21T20:26:55.310Z,96557.09
2023-05-21T20:29:22.014Z,96558.69
2023-05-21T20:31:48.940Z,96557.09
2023-05-21T20:34:15.608Z,96548.94
2023-05-21T20:36:42.316Z,96558.22
2023-05-21T20:39:09.050Z,96551.72
2023-05-21T20:41:35.778Z,96556.03
2023-05-21T20:44:03.061Z,96558.81
2023-05-21T20:46:29.969Z,96562.09
2023-05-21T20:48:56.736Z,96557.19
2023-05-21T20:51:23.530Z,96564.81
2023-05-21T20:53:50.231Z,96565.84
2023-05-21T20:56:21.775Z,96565.84
2023-05-21T20:58:53.383Z,96569.44
2023-05-21T21:01:20.140Z,96574.41
2023-05-21T21:03:46.966Z,96574.72
2023-05-21T21:06:14.244Z,96578.19
2023-05-21T21:08:40.869Z,96582.59
2023-05-21T21:11:08.253Z,96586.69
2023-05-21T21:13:35.425Z,96587.81
2023-05-21T21:16:02.642Z,96593.53
2023-05-21T21:18:29.420Z,96599.84
2023-05-21T21:20:56.078Z,96596.84
2023-05-21T21:23:28.128Z,96598.78
2023-05-21T21:25:54.820Z,96603.66
2023-05-21T21:28:21.453Z,96602.56
2023-05-21T21:30:48.076Z,96599.88
2023-05-21T21:33:14.939Z,96600.97
2023-05-21T21:35:41.685Z,96605.34
2023-05-21T21:38:08.315Z,96609.72
2023-05-21T21:40:34.945Z,96609.81
2023-05-21T21:43:01.613Z,96608.72
2023-05-21T21:45:28.300Z,96606.00
2023-05-21T21:47:54.968Z,96612.50
2023-05-21T21:50:21.662Z,96615.22
2023-05-21T21:52:48.395Z,96608.47
2023-05-21T21:55:15.254Z,96599.72
2023-05-21T21:57:41.956Z,96601.69
2023-05-21T22:00:09.033Z,96600.00
2023-05-21T22:02:35.702Z,96597.53
2023-05-21T22:05:02.539Z,96606.56
2023-05-21T22:07:29.312Z,96602.25
2023-05-21T22:09:56.006Z,96600.63
2023-05-21T22:12:22.708Z,96608.72
2023-05-21T22:14:49.445Z,96606.00
2023-05-21T22:17:16.094Z,96610.94
2023-05-21T22:19:42.714Z,96621.56
2023-05-21T22:22:09.352Z,96620.47
2023-05-21T22:24:36.281Z,96614.22
2023-05-21T22:27:03.086Z,96615.28
2023-05-21T22:29:29.732Z,96617.19
2023-05-21T22:31:56.580Z,96623.19
2023-05-21T22:34:23.269Z,96634.09
2023-05-21T22:36:49.915Z,96624.84
2023-05-21T22:39:17.263Z,96628.38
2023-05-21T22:41:43.891Z,96632.16
2023-05-21T22:44:10.542Z,96633.28
2023-05-21T22:46:37.277Z,96627.56
2023-05-21T22:49:04.079Z,96636.78
2023-05-21T22:51:30.765Z,96634.88
2023-05-21T22:53:57.408Z,96636.50
2023-05-21T22:56:24.095Z,96640.84
2023-05-21T22:58:50.734Z,96645.22
2023-05-21T23:01:17.600Z,96628.41
2023-05-21T23:03:44.360Z,96636.00
2023-05-21T23:06:11.176Z,96633.81
2023-05-21T23:08:37.855Z,96633.81
2023-05-21T23:11:04.581Z,96628.69
2023-05-21T23:13:31.288Z,96632.25
2023-05-21T23:15:57.998Z,96635.19
2023-05-21T23:18:25.495Z,96633.84
2023-05-21T23:20:52.155Z,96632.22
2023-05-21T23:23:18.800Z,96630.56
2023-05-21T23:25:45.499Z,96642.28
2023-05-21T23:28:12.206Z,96632.22
2023-05-21T23:30:39.172Z,96632.53
2023-05-21T23:33:06.134Z,96634.16
2023-05-21T23:35:32.910Z,96621.91
2023-05-21T23:37:59.582Z,96630.63
2023-05-21T23:40:26.226Z,96633.06
2023-05-21T23:42:52.872Z,96633.91
2023-05-21T23:45:19.703Z,96636.06
2023-05-21T23:47:46.457Z,96632.53
2023-05-21T23:50:13.161Z,96630.09
2023-05-21T23:52:39.837Z,96629.78
2023-05-21T23:55:07.387Z,96631.41
2023-05-21T23:57:34.055Z,96630.31
